sensor_id;sensor_type;location;lat;lon;timestamp;pressure;altitude;pressure_sealevel;temperature;humidity
70971;BME280;58632;51.718;19.446;2023-02-28T00:01:31;100984.12;;;-2.99;100.00
70971;BME280;58632;51.718;19.446;2023-02-28T00:03:57;100978.77;;;-2.96;100.00
70971;BME280;58632;51.718;19.446;2023-02-28T00:06:22;100980.05;;;-2.95;100.00
70971;BME280;58632;51.718;19.446;2023-02-28T00:08:49;100983.83;;;-2.94;100.00
70971;BME280;58632;51.718;19.446;2023-02-28T00:11:14;100985.02;;;-2.93;100.00
70971;BME280;58632;51.718;19.446;2023-02-28T00:13:41;100987.25;;;-2.93;100.00
70971;BME280;58632;51.718;19.446;2023-02-28T00:16:09;100986.91;;;-2.93;100.00
70971;BME280;58632;51.718;19.446;2023-02-28T00:18:35;100990.80;;;-2.92;100.00
70971;BME280;58632;51.718;19.446;2023-02-28T00:21:00;100988.70;;;-2.93;100.00
70971;BME280;58632;51.718;19.446;2023-02-28T00:23:26;100991.25;;;-2.93;100.00
70971;BME280;58632;51.718;19.446;2023-02-28T00:25:51;100983.30;;;-2.94;100.00
70971;BME280;58632;51.718;19.446;2023-02-28T00:28:17;100982.64;;;-2.90;100.00
70971;BME280;58632;51.718;19.446;2023-02-28T00:30:43;100982.89;;;-2.91;100.00
70971;BME280;58632;51.718;19.446;2023-02-28T00:33:08;100979.78;;;-2.92;100.00
70971;BME280;58632;51.718;19.446;2023-02-28T00:35:34;100979.46;;;-2.93;100.00
70971;BME280;58632;51.718;19.446;2023-02-28T00:38:00;100980.71;;;-2.96;100.00
70971;BME280;58632;51.718;19.446;2023-02-28T00:40:25;100981.10;;;-3.00;100.00
70971;BME280;58632;51.718;19.446;2023-02-28T00:42:50;100985.84;;;-3.04;100.00
70971;BME280;58632;51.718;19.446;2023-02-28T00:45:16;100984.02;;;-3.07;100.00
70971;BME280;58632;51.718;19.446;2023-02-28T00:47:42;100983.66;;;-3.12;100.00
70971;BME280;58632;51.718;19.446;2023-02-28T00:50:07;100982.43;;;-3.14;100.00
70971;BME280;58632;51.718;19.446;2023-02-28T00:52:33;100983.65;;;-3.18;100.00
70971;BME280;58632;51.718;19.446;2023-02-28T00:54:59;100981.20;;;-3.23;100.00
70971;BME280;58632;51.718;19.446;2023-02-28T00:57:24;100979.39;;;-3.28;100.00
70971;BME280;58632;51.718;19.446;2023-02-28T00:59:51;100983.48;;;-3.33;100.00
70971;BME280;58632;51.718;19.446;2023-02-28T01:02:19;100984.61;;;-3.39;100.00
70971;BME280;58632;51.718;19.446;2023-02-28T01:04:45;100983.72;;;-3.47;100.00
70971;BME280;58632;51.718;19.446;2023-02-28T01:07:11;100987.11;;;-3.55;100.00
70971;BME280;58632;51.718;19.446;2023-02-28T01:09:37;100987.98;;;-3.65;100.00
70971;BME280;58632;51.718;19.446;2023-02-28T01:12:02;100984.97;;;-3.75;100.00
70971;BME280;58632;51.718;19.446;2023-02-28T01:14:28;100989.02;;;-3.86;100.00
70971;BME280;58632;51.718;19.446;2023-02-28T01:16:54;100986.40;;;-3.97;100.00
70971;BME280;58632;51.718;19.446;2023-02-28T01:19:19;100981.96;;;-4.09;100.00
70971;BME280;58632;51.718;19.446;2023-02-28T01:21:45;100980.87;;;-4.19;100.00
70971;BME280;58632;51.718;19.446;2023-02-28T01:24:10;100978.77;;;-4.31;100.00
70971;BME280;58632;51.718;19.446;2023-02-28T01:26:36;100977.61;;;-4.43;100.00
70971;BME280;58632;51.718;19.446;2023-02-28T01:29:02;100978.73;;;-4.53;100.00
70971;BME280;58632;51.718;19.446;2023-02-28T01:31:28;100982.27;;;-4.63;100.00
70971;BME280;58632;51.718;19.446;2023-02-28T01:33:53;100978.89;;;-4.69;100.00
70971;BME280;58632;51.718;19.446;2023-02-28T01:36:20;100977.84;;;-4.71;100.00
70971;BME280;58632;51.718;19.446;2023-02-28T01:38:46;100981.98;;;-4.72;100.00
70971;BME280;58632;51.718;19.446;2023-02-28T01:41:19;100979.35;;;-4.73;100.00
70971;BME280;58632;51.718;19.446;2023-02-28T01:46:11;100978.11;;;-4.67;100.00
70971;BME280;58632;51.718;19.446;2023-02-28T01:48:38;100977.67;;;-4.62;100.00
70971;BME280;58632;51.718;19.446;2023-02-28T01:51:08;100978.70;;;-4.57;100.00
70971;BME280;58632;51.718;19.446;2023-02-28T01:53:37;100977.50;;;-4.56;100.00
70971;BME280;58632;51.718;19.446;2023-02-28T01:56:05;100975.27;;;-4.54;100.00
70971;BME280;58632;51.718;19.446;2023-02-28T01:58:32;100977.02;;;-4.52;100.00
70971;BME280;58632;51.718;19.446;2023-02-28T02:00:58;100978.57;;;-4.53;100.00
70971;BME280;58632;51.718;19.446;2023-02-28T02:03:23;100976.16;;;-4.55;100.00
70971;BME280;58632;51.718;19.446;2023-02-28T02:05:49;100972.02;;;-4.58;100.00
70971;BME280;58632;51.718;19.446;2023-02-28T02:08:16;100972.89;;;-4.63;100.00
70971;BME280;58632;51.718;19.446;2023-02-28T02:10:44;100975.42;;;-4.71;100.00
70971;BME280;58632;51.718;19.446;2023-02-28T02:21:07;100977.36;;;-5.17;100.00
70971;BME280;58632;51.718;19.446;2023-02-28T02:31:33;100977.64;;;-5.61;100.00
70971;BME280;58632;51.718;19.446;2023-02-28T02:37:02;100971.29;;;-5.69;100.00
70971;BME280;58632;51.718;19.446;2023-02-28T02:39:36;100970.13;;;-5.69;100.00
70971;BME280;58632;51.718;19.446;2023-02-28T02:42:09;100969.52;;;-5.66;100.00
70971;BME280;58632;51.718;19.446;2023-02-28T02:44:40;100969.63;;;-5.61;100.00
70971;BME280;58632;51.718;19.446;2023-02-28T02:47:10;100964.70;;;-5.54;100.00
70971;BME280;58632;51.718;19.446;2023-02-28T02:49:38;100964.27;;;-5.48;100.00
70971;BME280;58632;51.718;19.446;2023-02-28T02:52:06;100967.81;;;-5.43;100.00
70971;BME280;58632;51.718;19.446;2023-02-28T02:54:33;100967.34;;;-5.40;100.00
70971;BME280;58632;51.718;19.446;2023-02-28T02:57:01;100970.19;;;-5.38;100.00
70971;BME280;58632;51.718;19.446;2023-02-28T02:59:28;100973.79;;;-5.41;100.00
70971;BME280;58632;51.718;19.446;2023-02-28T03:01:56;100972.93;;;-5.46;100.00
70971;BME280;58632;51.718;19.446;2023-02-28T03:04:23;100978.96;;;-5.53;100.00
70971;BME280;58632;51.718;19.446;2023-02-28T03:06:50;100980.52;;;-5.61;100.00
70971;BME280;58632;51.718;19.446;2023-02-28T03:09:20;100982.65;;;-5.70;100.00
70971;BME280;58632;51.718;19.446;2023-02-28T03:11:46;100985.11;;;-5.81;100.00
70971;BME280;58632;51.718;19.446;2023-02-28T03:24:17;100987.89;;;-6.18;100.00
70971;BME280;58632;51.718;19.446;2023-02-28T03:26:45;100990.62;;;-6.20;100.00
70971;BME280;58632;51.718;19.446;2023-02-28T03:29:19;100989.95;;;-6.18;100.00
70971;BME280;58632;51.718;19.446;2023-02-28T03:31:52;100989.37;;;-6.13;100.00
70971;BME280;58632;51.718;19.446;2023-02-28T03:34:38;100990.55;;;-6.05;100.00
70971;BME280;58632;51.718;19.446;2023-02-28T03:37:07;100993.89;;;-5.94;100.00
70971;BME280;58632;51.718;19.446;2023-02-28T03:39:36;100993.55;;;-5.87;100.00
70971;BME280;58632;51.718;19.446;2023-02-28T03:42:16;100992.70;;;-5.81;100.00
70971;BME280;58632;51.718;19.446;2023-02-28T03:44:48;100993.42;;;-5.76;100.00
70971;BME280;58632;51.718;19.446;2023-02-28T03:47:36;100998.98;;;-5.71;100.00
70971;BME280;58632;51.718;19.446;2023-02-28T03:50:08;101001.90;;;-5.68;100.00
70971;BME280;58632;51.718;19.446;2023-02-28T03:52:38;101004.80;;;-5.66;100.00
70971;BME280;58632;51.718;19.446;2023-02-28T03:55:07;101003.11;;;-5.71;100.00
70971;BME280;58632;51.718;19.446;2023-02-28T03:57:53;101003.77;;;-5.78;100.00
70971;BME280;58632;51.718;19.446;2023-02-28T04:00:31;101007.59;;;-5.87;100.00
70971;BME280;58632;51.718;19.446;2023-02-28T04:02:59;101007.68;;;-5.96;100.00
70971;BME280;58632;51.718;19.446;2023-02-28T04:05:25;101010.71;;;-6.07;100.00
70971;BME280;58632;51.718;19.446;2023-02-28T04:07:50;101009.70;;;-6.16;100.00
70971;BME280;58632;51.718;19.446;2023-02-28T04:10:16;101013.46;;;-6.26;100.00
70971;BME280;58632;51.718;19.446;2023-02-28T04:12:43;101011.59;;;-6.35;100.00
70971;BME280;58632;51.718;19.446;2023-02-28T04:15:08;101014.35;;;-6.42;100.00
70971;BME280;58632;51.718;19.446;2023-02-28T04:17:35;101011.14;;;-6.48;100.00
70971;BME280;58632;51.718;19.446;2023-02-28T04:20:01;101008.54;;;-6.52;100.00
70971;BME280;58632;51.718;19.446;2023-02-28T04:22:28;101010.77;;;-6.51;100.00
70971;BME280;58632;51.718;19.446;2023-02-28T04:24:53;101010.34;;;-6.49;100.00
70971;BME280;58632;51.718;19.446;2023-02-28T04:27:19;101011.48;;;-6.45;100.00
70971;BME280;58632;51.718;19.446;2023-02-28T04:29:45;101011.69;;;-6.39;100.00
70971;BME280;58632;51.718;19.446;2023-02-28T04:32:10;101012.29;;;-6.32;100.00
70971;BME280;58632;51.718;19.446;2023-02-28T04:34:36;101014.42;;;-6.26;100.00
70971;BME280;58632;51.718;19.446;2023-02-28T04:37:02;101012.05;;;-6.21;100.00
70971;BME280;58632;51.718;19.446;2023-02-28T04:39:28;101010.05;;;-6.18;100.00
70971;BME280;58632;51.718;19.446;2023-02-28T04:41:54;101010.80;;;-6.17;100.00
70971;BME280;58632;51.718;19.446;2023-02-28T04:44:20;101013.39;;;-6.17;100.00
70971;BME280;58632;51.718;19.446;2023-02-28T04:46:47;101013.98;;;-6.21;100.00
70971;BME280;58632;51.718;19.446;2023-02-28T04:49:12;101013.06;;;-6.26;100.00
70971;BME280;58632;51.718;19.446;2023-02-28T04:51:38;101013.98;;;-6.39;100.00
70971;BME280;58632;51.718;19.446;2023-02-28T04:54:04;101014.11;;;-6.52;100.00
70971;BME280;58632;51.718;19.446;2023-02-28T04:56:30;101014.04;;;-6.61;100.00
70971;BME280;58632;51.718;19.446;2023-02-28T04:58:55;101013.04;;;-6.69;100.00
70971;BME280;58632;51.718;19.446;2023-02-28T05:01:28;101012.44;;;-6.76;100.00
70971;BME280;58632;51.718;19.446;2023-02-28T05:03:55;101010.18;;;-6.78;100.00
70971;BME280;58632;51.718;19.446;2023-02-28T05:06:22;101009.02;;;-6.78;100.00
70971;BME280;58632;51.718;19.446;2023-02-28T05:08:49;101014.11;;;-6.78;100.00
70971;BME280;58632;51.718;19.446;2023-02-28T05:11:24;101014.48;;;-6.75;100.00
70971;BME280;58632;51.718;19.446;2023-02-28T05:13:51;101017.38;;;-6.68;100.00
70971;BME280;58632;51.718;19.446;2023-02-28T05:16:17;101019.84;;;-6.60;100.00
70971;BME280;58632;51.718;19.446;2023-02-28T05:18:42;101023.45;;;-6.50;100.00
70971;BME280;58632;51.718;19.446;2023-02-28T05:21:47;101024.91;;;-6.40;100.00
70971;BME280;58632;51.718;19.446;2023-02-28T05:24:03;101024.05;;;-6.28;100.00
70971;BME280;58632;51.718;19.446;2023-02-28T05:26:29;101028.69;;;-6.17;100.00
70971;BME280;58632;51.718;19.446;2023-02-28T05:28:55;101027.08;;;-6.07;100.00
70971;BME280;58632;51.718;19.446;2023-02-28T05:31:20;101033.18;;;-5.99;100.00
70971;BME280;58632;51.718;19.446;2023-02-28T05:33:46;101023.23;;;-5.93;100.00
70971;BME280;58632;51.718;19.446;2023-02-28T05:36:12;101024.13;;;-5.90;100.00
70971;BME280;58632;51.718;19.446;2023-02-28T05:38:37;101031.94;;;-5.89;100.00
70971;BME280;58632;51.718;19.446;2023-02-28T05:41:09;101038.46;;;-5.89;100.00
70971;BME280;58632;51.718;19.446;2023-02-28T05:43:35;101033.83;;;-5.89;100.00
70971;BME280;58632;51.718;19.446;2023-02-28T05:46:05;101036.83;;;-5.89;100.00
70971;BME280;58632;51.718;19.446;2023-02-28T05:48:32;101036.59;;;-5.91;100.00
70971;BME280;58632;51.718;19.446;2023-02-28T05:50:57;101040.05;;;-5.93;100.00
70971;BME280;58632;51.718;19.446;2023-02-28T05:53:23;101040.80;;;-5.92;100.00
70971;BME280;58632;51.718;19.446;2023-02-28T05:55:48;101039.54;;;-5.89;100.00
70971;BME280;58632;51.718;19.446;2023-02-28T05:58:14;101036.15;;;-5.86;100.00
70971;BME280;58632;51.718;19.446;2023-02-28T06:00:39;101041.77;;;-5.84;100.00
70971;BME280;58632;51.718;19.446;2023-02-28T06:03:05;101043.11;;;-5.80;100.00
70971;BME280;58632;51.718;19.446;2023-02-28T06:05:31;101047.01;;;-5.74;100.00
70971;BME280;58632;51.718;19.446;2023-02-28T06:07:57;101053.73;;;-5.69;100.00
70971;BME280;58632;51.718;19.446;2023-02-28T06:10:22;101054.27;;;-5.67;100.00
70971;BME280;58632;51.718;19.446;2023-02-28T06:12:48;101053.37;;;-5.59;100.00
70971;BME280;58632;51.718;19.446;2023-02-28T06:15:14;101058.04;;;-5.45;100.00
70971;BME280;58632;51.718;19.446;2023-02-28T06:17:40;101060.36;;;-5.30;100.00
70971;BME280;58632;51.718;19.446;2023-02-28T06:20:07;101061.07;;;-5.16;100.00
70971;BME280;58632;51.718;19.446;2023-02-28T06:22:36;101069.10;;;-4.99;100.00
70971;BME280;58632;51.718;19.446;2023-02-28T06:25:01;101071.74;;;-4.83;100.00
70971;BME280;58632;51.718;19.446;2023-02-28T06:27:27;101073.85;;;-4.67;100.00
70971;BME280;58632;51.718;19.446;2023-02-28T06:29:55;101078.98;;;-4.51;100.00
70971;BME280;58632;51.718;19.446;2023-02-28T06:32:21;101080.95;;;-4.34;100.00
70971;BME280;58632;51.718;19.446;2023-02-28T06:34:46;101081.02;;;-4.16;100.00
70971;BME280;58632;51.718;19.446;2023-02-28T06:37:12;101081.98;;;-3.98;100.00
70971;BME280;58632;51.718;19.446;2023-02-28T06:39:37;101084.62;;;-3.82;100.00
70971;BME280;58632;51.718;19.446;2023-02-28T06:42:03;101089.90;;;-3.61;100.00
70971;BME280;58632;51.718;19.446;2023-02-28T06:44:29;101091.23;;;-3.39;100.00
70971;BME280;58632;51.718;19.446;2023-02-28T06:47:03;101092.50;;;-3.13;100.00
70971;BME280;58632;51.718;19.446;2023-02-28T06:49:29;101092.64;;;-2.88;100.00
70971;BME280;58632;51.718;19.446;2023-02-28T06:51:55;101095.91;;;-2.66;100.00
70971;BME280;58632;51.718;19.446;2023-02-28T06:54:20;101098.36;;;-2.43;100.00
70971;BME280;58632;51.718;19.446;2023-02-28T06:56:46;101094.27;;;-2.22;100.00
70971;BME280;58632;51.718;19.446;2023-02-28T06:59:12;101098.06;;;-2.01;100.00
70971;BME280;58632;51.718;19.446;2023-02-28T07:01:38;101101.68;;;-1.81;100.00
70971;BME280;58632;51.718;19.446;2023-02-28T07:04:04;101101.33;;;-1.61;100.00
70971;BME280;58632;51.718;19.446;2023-02-28T07:06:30;101098.90;;;-1.47;100.00
70971;BME280;58632;51.718;19.446;2023-02-28T07:08:56;101102.34;;;-1.36;100.00
70971;BME280;58632;51.718;19.446;2023-02-28T07:11:22;101100.13;;;-1.28;100.00
70971;BME280;58632;51.718;19.446;2023-02-28T07:13:48;101099.20;;;-1.11;100.00
70971;BME280;58632;51.718;19.446;2023-02-28T07:16:14;101098.41;;;-0.99;100.00
70971;BME280;58632;51.718;19.446;2023-02-28T07:18:39;101099.67;;;-0.88;100.00
70971;BME280;58632;51.718;19.446;2023-02-28T07:21:06;101103.83;;;-0.78;100.00
70971;BME280;58632;51.718;19.446;2023-02-28T07:23:31;101100.34;;;-0.68;100.00
70971;BME280;58632;51.718;19.446;2023-02-28T07:25:57;101101.55;;;-0.56;100.00
70971;BME280;58632;51.718;19.446;2023-02-28T07:28:22;101099.89;;;-0.43;100.00
70971;BME280;58632;51.718;19.446;2023-02-28T07:30:48;101098.85;;;-0.28;100.00
70971;BME280;58632;51.718;19.446;2023-02-28T07:33:14;101102.63;;;-0.14;100.00
70971;BME280;58632;51.718;19.446;2023-02-28T07:35:39;101098.89;;;-0.00;100.00
70971;BME280;58632;51.718;19.446;2023-02-28T07:38:05;101101.51;;;0.09;100.00
70971;BME280;58632;51.718;19.446;2023-02-28T07:40:32;101102.08;;;0.19;100.00
70971;BME280;58632;51.718;19.446;2023-02-28T07:42:59;101104.45;;;0.22;99.97
70971;BME280;58632;51.718;19.446;2023-02-28T07:45:24;101108.16;;;0.24;98.74
70971;BME280;58632;51.718;19.446;2023-02-28T07:47:50;101107.73;;;0.31;100.00
70971;BME280;58632;51.718;19.446;2023-02-28T07:50:16;101098.23;;;0.44;100.00
70971;BME280;58632;51.718;19.446;2023-02-28T07:52:41;101099.09;;;0.58;98.70
70971;BME280;58632;51.718;19.446;2023-02-28T07:55:08;101099.56;;;0.67;98.48
70971;BME280;58632;51.718;19.446;2023-02-28T07:57:34;101096.52;;;0.73;94.33
70971;BME280;58632;51.718;19.446;2023-02-28T07:59:59;101098.18;;;0.77;93.27
70971;BME280;58632;51.718;19.446;2023-02-28T08:02:25;101096.25;;;0.86;96.34
70971;BME280;58632;51.718;19.446;2023-02-28T08:04:51;101092.09;;;1.03;97.10
70971;BME280;58632;51.718;19.446;2023-02-28T08:07:16;101092.92;;;1.17;93.66
70971;BME280;58632;51.718;19.446;2023-02-28T08:09:42;101090.86;;;1.13;89.41
70971;BME280;58632;51.718;19.446;2023-02-28T08:12:09;101097.90;;;1.16;91.35
70971;BME280;58632;51.718;19.446;2023-02-28T08:14:35;101099.77;;;1.22;88.93
70971;BME280;58632;51.718;19.446;2023-02-28T08:17:01;101097.48;;;1.26;89.12
70971;BME280;58632;51.718;19.446;2023-02-28T08:19:26;101100.20;;;1.31;87.73
70971;BME280;58632;51.718;19.446;2023-02-28T08:21:52;101093.05;;;1.38;87.33
70971;BME280;58632;51.718;19.446;2023-02-28T08:24:18;101090.17;;;1.42;87.97
70971;BME280;58632;51.718;19.446;2023-02-28T08:26:43;101091.73;;;1.52;90.89
70971;BME280;58632;51.718;19.446;2023-02-28T08:29:09;101091.54;;;1.62;85.87
70971;BME280;58632;51.718;19.446;2023-02-28T08:31:34;101092.98;;;1.71;87.25
70971;BME280;58632;51.718;19.446;2023-02-28T08:34:04;101095.66;;;1.75;85.04
70971;BME280;58632;51.718;19.446;2023-02-28T08:36:30;101093.58;;;1.77;83.56
70971;BME280;58632;51.718;19.446;2023-02-28T08:38:56;101089.73;;;1.77;81.83
70971;BME280;58632;51.718;19.446;2023-02-28T08:41:22;101083.62;;;1.81;82.85
70971;BME280;58632;51.718;19.446;2023-02-28T08:43:47;101083.54;;;1.80;82.23
70971;BME280;58632;51.718;19.446;2023-02-28T08:46:13;101086.64;;;1.81;79.73
70971;BME280;58632;51.718;19.446;2023-02-28T08:48:39;101087.73;;;1.82;78.85
70971;BME280;58632;51.718;19.446;2023-02-28T08:51:13;101087.90;;;1.88;80.31
70971;BME280;58632;51.718;19.446;2023-02-28T08:53:39;101088.77;;;1.91;75.57
70971;BME280;58632;51.718;19.446;2023-02-28T08:56:06;101087.91;;;1.84;76.42
70971;BME280;58632;51.718;19.446;2023-02-28T08:58:32;101092.89;;;1.83;77.16
70971;BME280;58632;51.718;19.446;2023-02-28T09:00:58;101088.80;;;1.81;76.67
70971;BME280;58632;51.718;19.446;2023-02-28T09:03:24;101090.02;;;1.83;75.99
70971;BME280;58632;51.718;19.446;2023-02-28T09:05:54;101086.86;;;1.85;75.71
70971;BME280;58632;51.718;19.446;2023-02-28T09:08:19;101091.73;;;1.90;76.44
70971;BME280;58632;51.718;19.446;2023-02-28T09:10:45;101090.55;;;1.90;74.09
70971;BME280;58632;51.718;19.446;2023-02-28T09:13:10;101088.48;;;1.92;73.40
70971;BME280;58632;51.718;19.446;2023-02-28T09:15:39;101090.48;;;1.96;74.22
70971;BME280;58632;51.718;19.446;2023-02-28T09:18:04;101086.61;;;2.01;74.65
70971;BME280;58632;51.718;19.446;2023-02-28T09:20:30;101085.70;;;2.06;74.46
70971;BME280;58632;51.718;19.446;2023-02-28T09:22:56;101086.33;;;2.08;72.20
70971;BME280;58632;51.718;19.446;2023-02-28T09:25:21;101085.11;;;2.06;73.13
70971;BME280;58632;51.718;19.446;2023-02-28T09:27:47;101086.39;;;2.10;72.71
70971;BME280;58632;51.718;19.446;2023-02-28T09:30:13;101088.39;;;2.08;71.55
70971;BME280;58632;51.718;19.446;2023-02-28T09:32:39;101081.30;;;2.01;73.67
70971;BME280;58632;51.718;19.446;2023-02-28T09:35:04;101083.91;;;2.06;74.28
70971;BME280;58632;51.718;19.446;2023-02-28T09:37:30;101084.88;;;2.08;71.58
70971;BME280;58632;51.718;19.446;2023-02-28T09:39:56;101080.33;;;2.06;70.15
70971;BME280;58632;51.718;19.446;2023-02-28T09:42:25;101075.16;;;2.06;72.04
70971;BME280;58632;51.718;19.446;2023-02-28T09:44:53;101073.91;;;2.08;71.97
70971;BME280;58632;51.718;19.446;2023-02-28T09:47:27;101070.63;;;2.09;72.37
70971;BME280;58632;51.718;19.446;2023-02-28T09:49:54;101069.79;;;2.05;70.06
70971;BME280;58632;51.718;19.446;2023-02-28T09:52:24;101072.31;;;1.96;70.49
70971;BME280;58632;51.718;19.446;2023-02-28T09:54:52;101067.77;;;1.91;72.32
70971;BME280;58632;51.718;19.446;2023-02-28T10:00:14;101065.13;;;2.01;71.73
70971;BME280;58632;51.718;19.446;2023-02-28T10:05:21;101059.91;;;1.99;70.49
70971;BME280;58632;51.718;19.446;2023-02-28T10:10:28;101064.92;;;2.15;72.52
70971;BME280;58632;51.718;19.446;2023-02-28T10:12:55;101068.78;;;2.16;69.30
70971;BME280;58632;51.718;19.446;2023-02-28T10:15:23;101068.63;;;2.09;66.97
70971;BME280;58632;51.718;19.446;2023-02-28T10:17:53;101070.46;;;2.04;67.03
70971;BME280;58632;51.718;19.446;2023-02-28T10:20:20;101072.23;;;2.06;67.78
70971;BME280;58632;51.718;19.446;2023-02-28T10:22:53;101069.79;;;2.10;69.90
70971;BME280;58632;51.718;19.446;2023-02-28T10:25:23;101070.71;;;2.22;72.47
70971;BME280;58632;51.718;19.446;2023-02-28T10:27:49;101068.50;;;2.34;72.80
70971;BME280;58632;51.718;19.446;2023-02-28T10:30:18;101071.38;;;2.37;69.42
70971;BME280;58632;51.718;19.446;2023-02-28T10:32:53;101066.62;;;2.29;68.41
70971;BME280;58632;51.718;19.446;2023-02-28T10:35:20;101068.30;;;2.23;66.03
70971;BME280;58632;51.718;19.446;2023-02-28T10:37:50;101065.63;;;2.17;69.65
70971;BME280;58632;51.718;19.446;2023-02-28T10:42:57;101070.27;;;2.17;65.68
70971;BME280;58632;51.718;19.446;2023-02-28T10:45:23;101065.94;;;2.14;66.65
70971;BME280;58632;51.718;19.446;2023-02-28T10:52:52;101065.94;;;2.24;66.62
70971;BME280;58632;51.718;19.446;2023-02-28T10:55:22;101062.34;;;2.29;65.86
70971;BME280;58632;51.718;19.446;2023-02-28T10:57:50;101060.25;;;2.32;65.36
70971;BME280;58632;51.718;19.446;2023-02-28T11:00:20;101065.30;;;2.38;67.45
70971;BME280;58632;51.718;19.446;2023-02-28T11:02:47;101068.79;;;2.42;63.40
70971;BME280;58632;51.718;19.446;2023-02-28T11:07:54;101069.40;;;2.50;65.24
70971;BME280;58632;51.718;19.446;2023-02-28T11:10:21;101068.92;;;2.56;65.64
70971;BME280;58632;51.718;19.446;2023-02-28T11:12:49;101066.02;;;2.64;65.93
70971;BME280;58632;51.718;19.446;2023-02-28T11:17:53;101062.92;;;2.71;63.30
70971;BME280;58632;51.718;19.446;2023-02-28T11:20:22;101059.09;;;2.71;61.05
70971;BME280;58632;51.718;19.446;2023-02-28T11:22:49;101055.39;;;2.73;60.29
70971;BME280;58632;51.718;19.446;2023-02-28T11:27:48;101042.73;;;2.86;61.46
70971;BME280;58632;51.718;19.446;2023-02-28T11:32:55;101040.48;;;3.02;57.88
70971;BME280;58632;51.718;19.446;2023-02-28T11:35:27;101033.77;;;3.03;57.15
70971;BME280;58632;51.718;19.446;2023-02-28T11:37:54;101028.56;;;3.06;57.84
70971;BME280;58632;51.718;19.446;2023-02-28T11:40:39;101029.15;;;3.09;60.60
70971;BME280;58632;51.718;19.446;2023-02-28T11:45:45;101024.44;;;3.41;58.46
70971;BME280;58632;51.718;19.446;2023-02-28T11:48:18;101027.23;;;3.56;56.72
70971;BME280;58632;51.718;19.446;2023-02-28T11:50:49;101026.58;;;3.66;54.42
70971;BME280;58632;51.718;19.446;2023-02-28T11:53:30;101025.08;;;3.69;54.67
70971;BME280;58632;51.718;19.446;2023-02-28T12:01:03;101014.82;;;3.81;54.78
70971;BME280;58632;51.718;19.446;2023-02-28T12:06:15;101011.58;;;3.80;52.33
70971;BME280;58632;51.718;19.446;2023-02-28T12:08:47;101010.75;;;3.75;53.65
70971;BME280;58632;51.718;19.446;2023-02-28T12:16:52;101005.22;;;3.72;53.38
70971;BME280;58632;51.718;19.446;2023-02-28T12:19:22;100998.77;;;3.68;53.77
70971;BME280;58632;51.718;19.446;2023-02-28T12:26:58;100994.56;;;3.61;53.53
70971;BME280;58632;51.718;19.446;2023-02-28T12:31:53;100992.57;;;3.66;54.03
70971;BME280;58632;51.718;19.446;2023-02-28T12:34:31;100989.61;;;3.63;53.11
70971;BME280;58632;51.718;19.446;2023-02-28T12:36:58;100988.63;;;3.64;54.51
70971;BME280;58632;51.718;19.446;2023-02-28T12:39:28;100985.04;;;3.55;53.01
70971;BME280;58632;51.718;19.446;2023-02-28T12:41:59;100981.27;;;3.54;55.79
70971;BME280;58632;51.718;19.446;2023-02-28T12:44:32;100980.64;;;3.56;57.84
70971;BME280;58632;51.718;19.446;2023-02-28T12:47:04;100979.69;;;3.57;56.17
70971;BME280;58632;51.718;19.446;2023-02-28T12:49:34;100980.34;;;3.64;55.48
70971;BME280;58632;51.718;19.446;2023-02-28T12:52:03;100973.45;;;3.69;55.23
70971;BME280;58632;51.718;19.446;2023-02-28T12:54:35;100968.73;;;3.70;54.63
70971;BME280;58632;51.718;19.446;2023-02-28T12:57:06;100963.29;;;3.68;53.91
70971;BME280;58632;51.718;19.446;2023-02-28T13:10:04;100960.64;;;3.28;55.43
70971;BME280;58632;51.718;19.446;2023-02-28T13:12:31;100961.95;;;3.17;55.62
70971;BME280;58632;51.718;19.446;2023-02-28T13:17:37;100954.67;;;3.09;56.37
70971;BME280;58632;51.718;19.446;2023-02-28T13:20:04;100950.77;;;3.08;56.63
70971;BME280;58632;51.718;19.446;2023-02-28T13:22:43;100950.16;;;3.08;57.20
70971;BME280;58632;51.718;19.446;2023-02-28T13:27:47;100948.50;;;2.73;56.27
70971;BME280;58632;51.718;19.446;2023-02-28T13:33:17;100951.38;;;2.66;59.60
70971;BME280;58632;51.718;19.446;2023-02-28T13:35:46;100951.88;;;2.66;58.97
70971;BME280;58632;51.718;19.446;2023-02-28T13:38:17;100953.85;;;2.64;58.73
70971;BME280;58632;51.718;19.446;2023-02-28T13:40:42;100946.41;;;2.63;58.67
70971;BME280;58632;51.718;19.446;2023-02-28T13:43:08;100944.02;;;2.62;59.03
70971;BME280;58632;51.718;19.446;2023-02-28T13:45:33;100937.79;;;2.64;59.81
70971;BME280;58632;51.718;19.446;2023-02-28T13:48:15;100936.70;;;2.68;59.53
70971;BME280;58632;51.718;19.446;2023-02-28T13:50:41;100937.30;;;2.70;59.47
70971;BME280;58632;51.718;19.446;2023-02-28T14:04:45;100935.85;;;2.88;60.57
70971;BME280;58632;51.718;19.446;2023-02-28T14:07:03;100933.34;;;2.90;59.71
70971;BME280;58632;51.718;19.446;2023-02-28T14:11:54;100925.08;;;2.82;59.52
70971;BME280;58632;51.718;19.446;2023-02-28T14:17:05;100921.08;;;2.80;58.40
70971;BME280;58632;51.718;19.446;2023-02-28T14:19:32;100914.86;;;2.79;57.92
70971;BME280;58632;51.718;19.446;2023-02-28T14:27:14;100915.14;;;2.83;59.41
70971;BME280;58632;51.718;19.446;2023-02-28T14:37:30;100912.15;;;2.83;60.00
70971;BME280;58632;51.718;19.446;2023-02-28T14:39:57;100916.59;;;2.82;59.03
70971;BME280;58632;51.718;19.446;2023-02-28T14:44:54;100913.66;;;2.76;59.17
70971;BME280;58632;51.718;19.446;2023-02-28T14:47:21;100912.59;;;2.74;58.29
70971;BME280;58632;51.718;19.446;2023-02-28T14:49:48;100913.98;;;2.70;57.51
70971;BME280;58632;51.718;19.446;2023-02-28T14:52:19;100914.52;;;2.67;56.89